Caistor, United Kingdom
Current Conditions -  °F | °C
As of 11:50 AM on Friday 19 Dec 2014 (Local Time) from EGNJ Reporting Station
Few Clouds Few Clouds  
Wind Chill: 39°   Ceiling: Unl
Heat Index: 46°   Visibility: 6mi
Dew Point: 37°   Wind: 21mph
Humidity: 71%   Direction: 250°WSW
Pressure: 29.83"   Gusts: NA
Location:  53.5°N, 0.32°W
Report Text: EGNJ 191150Z 25018KT 9999 FEW032 08/03 Q1010
Loading
Personal Weather Stations






























Interactive Weather Map New forecast layout! Learn more

10-Day Weather Forecast

Advertisements
Track Severe Weather on mobile